< < Back
Terminal Aerodrome Forecast


Current Version              Previous Versions:   1  2  3  4  5  6  7  8  9  

Terminal Aerodrome Forecast

549
FTUS42 KGSP 072059 AAA
TAFCLT
TAF AMD
KCLT 072059Z 0721/0818 36010G18KT P6SM BKN180
     FM072300 33003KT P6SM FEW250
     FM080800 25003KT P6SM SCT140
     FM081600 20007KT P6SM SCT060 BKN140=

Latest METAR

397
SAUS70 KWBC 080800 RRB
MTRCLT
METAR KCLT 080752Z 26003KT 10SM CLR 01/M04 A2986 RMK AO2 SLP114
T00111044


USA.gov is the U.S. government's official web portal to all federal, state and local government web resources and services.